Map

Track Data

SID SEASON NUMBER BASIN SUBBASIN NAME ISO_TIME NATURE LAT LON WMO_WIND WMO_PRES WMO_AGENCY TRACK_TYPE DIST2LAND LANDFALL IFLAG USA_AGENCY USA_ATCF_ID USA_LAT USA_LON USA_RECORD USA_STATUS USA_WIND USA_PRES USA_SSHS USA_R34_NE USA_R34_SE USA_R34_SW USA_R34_NW USA_R50_NE USA_R50_SE USA_R50_SW USA_R50_NW USA_R64_NE USA_R64_SE USA_R64_SW USA_R64_NW USA_POCI USA_ROCI USA_RMW USA_EYE TOKYO_LAT TOKYO_LON TOKYO_GRADE TOKYO_WIND TOKYO_PRES TOKYO_R50_DIR TOKYO_R50_LONG TOKYO_R50_SHORT TOKYO_R30_DIR TOKYO_R30_LONG TOKYO_R30_SHORT TOKYO_LAND CMA_LAT CMA_LON CMA_CAT CMA_WIND CMA_PRES HKO_LAT HKO_LON HKO_CAT HKO_WIND HKO_PRES NEWDELHI_LAT NEWDELHI_LON NEWDELHI_GRADE NEWDELHI_WIND NEWDELHI_PRES NEWDELHI_CI NEWDELHI_DP NEWDELHI_POCI REUNION_LAT REUNION_LON REUNION_TYPE REUNION_WIND REUNION_PRES REUNION_TNUM REUNION_CI REUNION_RMW REUNION_R34_NE REUNION_R34_SE REUNION_R34_SW REUNION_R34_NW REUNION_R50_NE REUNION_R50_SE REUNION_R50_SW REUNION_R50_NW REUNION_R64_NE REUNION_R64_SE REUNION_R64_SW REUNION_R64_NW BOM_LAT BOM_LON BOM_TYPE BOM_WIND BOM_PRES BOM_TNUM BOM_CI BOM_RMW BOM_R34_NE BOM_R34_SE BOM_R34_SW BOM_R34_NW BOM_R50_NE BOM_R50_SE BOM_R50_SW BOM_R50_NW BOM_R64_NE BOM_R64_SE BOM_R64_SW BOM_R64_NW BOM_ROCI BOM_POCI BOM_EYE BOM_POS_METHOD BOM_PRES_METHOD NADI_LAT NADI_LON NADI_CAT NADI_WIND NADI_PRES WELLINGTON_LAT WELLINGTON_LON WELLINGTON_WIND WELLINGTON_PRES DS824_LAT DS824_LON DS824_STAGE DS824_WIND DS824_PRES TD9636_LAT TD9636_LON TD9636_STAGE TD9636_WIND TD9636_PRES TD9635_LAT TD9635_LON TD9635_WIND TD9635_PRES TD9635_ROCI NEUMANN_LAT NEUMANN_LON NEUMANN_CLASS NEUMANN_WIND NEUMANN_PRES MLC_LAT MLC_LON MLC_CLASS MLC_WIND MLC_PRES USA_GUST BOM_GUST BOM_GUST_PER REUNION_GUST REUNION_GUST_PER USA_SEAHGT USA_SEARAD_NE USA_SEARAD_SE USA_SEARAD_SW USA_SEARAD_NW STORM_SPEED STORM_DIR
1906265N30328 1906 39 NA NA NOT_NAMED 1906-09-22 00:00:00 TS 30.3000 -31.9000 50 hurdat_atl main 1478 1478 O_____________ hurdat_atl AL071906 30.3000 -31.9000 TS 50 0 11 231
1906265N30328 1906 39 NA NA NOT_NAMED 1906-09-22 03:00:00 TS 29.9380 -32.4109 main 1523 1523 P_____________ AL071906 29.9380 -32.4109 TS 50 0 11 231
1906265N30328 1906 39 NA NA NOT_NAMED 1906-09-22 06:00:00 TS 29.6000 -32.9000 50 hurdat_atl main 1569 1569 O_____________ hurdat_atl AL071906 29.6000 -32.9000 TS 50 0 10 232
1906265N30328 1906 39 NA NA NOT_NAMED 1906-09-22 09:00:00 TS 29.2998 -33.3570 main 1618 1618 P_____________ AL071906 29.2998 -33.3570 TS 50 0 10 233
1906265N30328 1906 39 NA NA NOT_NAMED 1906-09-22 12:00:00 TS 29.0000 -33.8000 50 hurdat_atl main 1657 1657 O_____________ hurdat_atl AL071906 29.0000 -33.8000 TS 50 0 10 230
1906265N30328 1906 39 NA NA NOT_NAMED 1906-09-22 15:00:00 TS 28.6499 -34.2499 main 1697 1697 P_____________ AL071906 28.6499 -34.2499 TS 50 0 11 228
1906265N30328 1906 39 NA NA NOT_NAMED 1906-09-22 18:00:00 TS 28.3000 -34.7000 50 hurdat_atl main 1748 1748 O_____________ hurdat_atl AL071906 28.3000 -34.7000 TS 50 0 10 230
1906265N30328 1906 39 NA NA NOT_NAMED 1906-09-22 21:00:00 TS 27.9774 -35.1574 main 1800 1800 P_____________ AL071906 27.9774 -35.1574 TS 52 0 10 233
1906265N30328 1906 39 NA NA NOT_NAMED 1906-09-23 00:00:00 TS 27.7000 -35.6000 55 hurdat_atl main 1843 1843 O_____________ hurdat_atl AL071906 27.7000 -35.6000 TS 55 0 9 237
1906265N30328 1906 39 NA NA NOT_NAMED 1906-09-23 03:00:00 TS 27.4849 -36.0147 main 1884 1884 P_____________ AL071906 27.4849 -36.0147 TS 55 0 8 241
1906265N30328 1906 39 NA NA NOT_NAMED 1906-09-23 06:00:00 TS 27.3000 -36.4000 55 hurdat_atl main 1926 1926 O_____________ hurdat_atl AL071906 27.3000 -36.4000 TS 55 0 8 239
1906265N30328 1906 39 NA NA NOT_NAMED 1906-09-23 09:00:00 TS 27.0924 -36.7574 main 1969 1969 P_____________ AL071906 27.0924 -36.7574 TS 57 0 7 237
1906265N30328 1906 39 NA NA NOT_NAMED 1906-09-23 12:00:00 TS 26.9000 -37.1000 60 hurdat_atl main 2002 2002 O_____________ hurdat_atl AL071906 26.9000 -37.1000 TS 60 0 7 240
1906265N30328 1906 39 NA NA NOT_NAMED 1906-09-23 15:00:00 TS 26.7424 -37.4498 main 2035 2035 P_____________ AL071906 26.7424 -37.4498 TS 60 0 7 244
1906265N30328 1906 39 NA NA NOT_NAMED 1906-09-23 18:00:00 TS 26.6000 -37.8000 60 hurdat_atl main 2076 2076 O_____________ hurdat_atl AL071906 26.6000 -37.8000 TS 60 0 7 244
1906265N30328 1906 39 NA NA NOT_NAMED 1906-09-23 21:00:00 TS 26.4424 -38.1500 main 2109 2109 P_____________ AL071906 26.4424 -38.1500 TS 60 0 7 244
1906265N30328 1906 39 NA NA NOT_NAMED 1906-09-24 00:00:00 TS 26.3000 -38.5000 60 hurdat_atl main 2150 2150 O_____________ hurdat_atl AL071906 26.3000 -38.5000 TS 60 0 7 247
1906265N30328 1906 39 NA NA NOT_NAMED 1906-09-24 03:00:00 TS 26.1849 -38.8424 main 2182 2182 P_____________ AL071906 26.1849 -38.8424 TS 60 0 7 252
1906265N30328 1906 39 NA NA NOT_NAMED 1906-09-24 06:00:00 TS 26.1000 -39.2000 60 hurdat_atl main 2223 2223 O_____________ hurdat_atl AL071906 26.1000 -39.2000 TS 60 0 7 259
1906265N30328 1906 39 NA NA NOT_NAMED 1906-09-24 09:00:00 TS 26.0500 -39.5998 main 2262 2262 P_____________ AL071906 26.0500 -39.5998 TS 60 0 7 262
1906265N30328 1906 39 NA NA NOT_NAMED 1906-09-24 12:00:00 TS 26.0000 -40.0000 60 hurdat_atl main 2303 2303 O_____________ hurdat_atl AL071906 26.0000 -40.0000 TS 60 0 7 257
1906265N30328 1906 39 NA NA NOT_NAMED 1906-09-24 15:00:00 TS 25.8998 -40.3500 main 2345 2345 P_____________ AL071906 25.8998 -40.3500 TS 60 0 7 252
1906265N30328 1906 39 NA NA NOT_NAMED 1906-09-24 18:00:00 TS 25.8000 -40.7000 60 hurdat_atl main 2376 2376 O_____________ hurdat_atl AL071906 25.8000 -40.7000 TS 60 0 7 256
1906265N30328 1906 39 NA NA NOT_NAMED 1906-09-24 21:00:00 TS 25.7350 -41.1000 main 2418 2418 P_____________ AL071906 25.7350 -41.1000 TS 60 0 7 262
1906265N30328 1906 39 NA NA NOT_NAMED 1906-09-25 00:00:00 TS 25.7000 -41.5000 60 hurdat_atl main 2457 2457 O_____________ hurdat_atl AL071906 25.7000 -41.5000 TS 60 0 7 266
1906265N30328 1906 39 NA NA NOT_NAMED 1906-09-25 03:00:00 TS 25.6923 -41.8499 main 2486 2486 P_____________ AL071906 25.6923 -41.8499 TS 60 0 6 270
1906265N30328 1906 39 NA NA NOT_NAMED 1906-09-25 06:00:00 TS 25.7000 -42.2000 60 hurdat_atl main 2522 2501 O_____________ hurdat_atl AL071906 25.7000 -42.2000 TS 60 0 7 271
1906265N30328 1906 39 NA NA NOT_NAMED 1906-09-25 09:00:00 TS 25.7000 -42.6000 main 2501 2463 P_____________ AL071906 25.7000 -42.6000 TS 60 0 7 270
1906265N30328 1906 39 NA NA NOT_NAMED 1906-09-25 12:00:00 TS 25.7000 -43.0000 60 hurdat_atl main 2463 2434 O_____________ hurdat_atl AL071906 25.7000 -43.0000 TS 60 0 7 268
1906265N30328 1906 39 NA NA NOT_NAMED 1906-09-25 15:00:00 TS 25.6774 -43.3652 main 2424 2395 P_____________ AL071906 25.6774 -43.3652 TS 60 0 6 270
1906265N30328 1906 39 NA NA NOT_NAMED 1906-09-25 18:00:00 TS 25.7000 -43.7000 60 hurdat_atl main 2395 2369 O_____________ hurdat_atl AL071906 25.7000 -43.7000 TS 60 0 6 283
1906265N30328 1906 39 NA NA NOT_NAMED 1906-09-25 21:00:00 TS 25.8200 -44.0299 main 2369 2347 P_____________ AL071906 25.8200 -44.0299 TS 60 0 6 299
1906265N30328 1906 39 NA NA NOT_NAMED 1906-09-26 00:00:00 TS 26.0000 -44.3000 60 hurdat_atl main 2347 2331 O_____________ hurdat_atl AL071906 26.0000 -44.3000 TS 60 0 5 311
1906265N30328 1906 39 NA NA NOT_NAMED 1906-09-26 03:00:00 TS 26.1774 -44.4876 main 2334 2328 P_____________ AL071906 26.1774 -44.4876 TS 60 0 5 326
1906265N30328 1906 39 NA NA NOT_NAMED 1906-09-26 06:00:00 TS 26.4000 -44.6000 60 hurdat_atl main 2331 2329 O_____________ hurdat_atl AL071906 26.4000 -44.6000 TS 60 0 5 342
1906265N30328 1906 39 NA NA NOT_NAMED 1906-09-26 09:00:00 TS 26.6925 -44.6725 main 2333 2306 P_____________ AL071906 26.6925 -44.6725 TS 60 0 6 352
1906265N30328 1906 39 NA NA NOT_NAMED 1906-09-26 12:00:00 TS 27.0000 -44.7000 60 hurdat_atl main 2306 2274 O_____________ hurdat_atl AL071906 27.0000 -44.7000 TS 60 0 6 355
1906265N30328 1906 39 NA NA NOT_NAMED 1906-09-26 15:00:00 TS 27.2650 -44.7299 main 2274 2253 P_____________ AL071906 27.2650 -44.7299 TS 60 0 5 2
1906265N30328 1906 39 NA NA NOT_NAMED 1906-09-26 18:00:00 TS 27.5000 -44.7000 60 hurdat_atl main 2253 2234 O_____________ hurdat_atl AL071906 27.5000 -44.7000 TS 60 0 5 16
1906265N30328 1906 39 NA NA NOT_NAMED 1906-09-26 21:00:00 TS 27.7150 -44.5801 main 2234 2216 P_____________ AL071906 27.7150 -44.5801 TS 60 0 5 34
1906265N30328 1906 39 NA NA NOT_NAMED 1906-09-27 00:00:00 TS 27.9000 -44.4000 60 hurdat_atl main 2219 2211 O_____________ hurdat_atl AL071906 27.9000 -44.4000 TS 60 0 5 43
1906265N30328 1906 39 NA NA NOT_NAMED 1906-09-27 03:00:00 TS 28.0499 -44.2298 main 2214 2196 P_____________ AL071906 28.0499 -44.2298 TS 60 0 5 50
1906265N30328 1906 39 NA NA NOT_NAMED 1906-09-27 06:00:00 TS 28.2000 -44.0000 60 hurdat_atl main 2199 2188 O_____________ hurdat_atl AL071906 28.2000 -44.0000 TS 60 0 6 55
1906265N30328 1906 39 NA NA NOT_NAMED 1906-09-27 09:00:00 TS 28.3774 -43.6947 main 2188 2177 P_____________ AL071906 28.3774 -43.6947 TS 60 0 7 57
1906265N30328 1906 39 NA NA NOT_NAMED 1906-09-27 12:00:00 TS 28.6000 -43.3000 60 hurdat_atl main 2180 2163 O_____________ hurdat_atl AL071906 28.6000 -43.3000 TS 60 0 9 56
1906265N30328 1906 39 NA NA NOT_NAMED 1906-09-27 15:00:00 TS 28.8773 -42.8447 main 2167 2150 P_____________ AL071906 28.8773 -42.8447 TS 60 0 11 56
1906265N30328 1906 39 NA NA NOT_NAMED 1906-09-27 18:00:00 TS 29.2000 -42.3000 60 hurdat_atl main 2154 2139 O_____________ hurdat_atl AL071906 29.2000 -42.3000 TS 60 0 12 57
1906265N30328 1906 39 NA NA NOT_NAMED 1906-09-27 21:00:00 TS 29.5500 -41.6725 main 2147 2131 P_____________ AL071906 29.5500 -41.6725 TS 60 0 13 58
1906265N30328 1906 39 NA NA NOT_NAMED 1906-09-28 00:00:00 TS 29.9000 -41.0000 60 hurdat_atl main 2135 2127 O_____________ hurdat_atl AL071906 29.9000 -41.0000 TS 60 0 13 60
1906265N30328 1906 39 NA NA NOT_NAMED 1906-09-28 03:00:00 TS 30.2148 -40.3422 main 2136 2129 P_____________ AL071906 30.2148 -40.3422 TS 60 0 13 62
1906265N30328 1906 39 NA NA NOT_NAMED 1906-09-28 06:00:00 TS 30.5000 -39.7000 60 hurdat_atl main 2134 2129 O_____________ hurdat_atl AL071906 30.5000 -39.7000 TS 60 0 12 64
1906265N30328 1906 39 NA NA NOT_NAMED 1906-09-28 09:00:00 TS 30.7418 -39.1140 main 2143 2112 P_____________ AL071906 30.7418 -39.1140 TS 60 0 11 64
1906265N30328 1906 39 NA NA NOT_NAMED 1906-09-28 12:00:00 TS 31.0000 -38.5000 60 hurdat_atl main 2112 2047 O_____________ hurdat_atl AL071906 31.0000 -38.5000 TS 60 0 13 63
1906265N30328 1906 39 NA NA NOT_NAMED 1906-09-28 15:00:00 TS 31.3348 -37.7799 main 2047 1976 P_____________ AL071906 31.3348 -37.7799 TS 60 0 15 61
1906265N30328 1906 39 NA NA NOT_NAMED 1906-09-28 18:00:00 TS 31.7000 -37.0000 60 hurdat_atl main 1976 1914 O_____________ hurdat_atl AL071906 31.7000 -37.0000 TS 60 0 15 62
1906265N30328 1906 39 NA NA NOT_NAMED 1906-09-28 21:00:00 TS 32.0495 -36.2144 main 1905 1837 P_____________ AL071906 32.0495 -36.2144 TS 60 0 15 63
1906265N30328 1906 39 NA NA NOT_NAMED 1906-09-29 00:00:00 TS 32.4000 -35.4000 60 hurdat_atl main 1837 1769 O_____________ hurdat_atl AL071906 32.4000 -35.4000 TS 60 0 16 64
1906265N30328 1906 39 NA NA NOT_NAMED 1906-09-29 03:00:00 TS 32.7424 -34.5419 main 1760 1697 P_____________ AL071906 32.7424 -34.5419 TS 60 0 16 64
1906265N30328 1906 39 NA NA NOT_NAMED 1906-09-29 06:00:00 TS 33.1000 -33.7000 60 hurdat_atl main 1697 1643 O_____________ hurdat_atl AL071906 33.1000 -33.7000 TS 60 0 15 61
1906265N30328 1906 39 NA NA NOT_NAMED 1906-09-29 09:00:00 TS 33.4919 -32.9269 main 1637 1589 P_____________ AL071906 33.4919 -32.9269 TS 60 0 15 57
1906265N30328 1906 39 NA NA NOT_NAMED 1906-09-29 12:00:00 TS 33.9000 -32.2000 60 hurdat_atl main 1589 1544 O_____________ hurdat_atl AL071906 33.9000 -32.2000 TS 60 0 14 57
1906265N30328 1906 39 NA NA NOT_NAMED 1906-09-29 15:00:00 TS 34.2772 -31.4764 main 1544 1503 P_____________ AL071906 34.2772 -31.4764 TS 60 0 14 55
1906265N30328 1906 39 NA NA NOT_NAMED 1906-09-29 18:00:00 TS 34.7000 -30.8000 60 hurdat_atl main 1503 1478 O_____________ hurdat_atl AL071906 34.7000 -30.8000 TS 60 0 14 48
1906265N30328 1906 39 NA NA NOT_NAMED 1906-09-29 21:00:00 TS 35.2423 -30.1627 main 1478 1464 P_____________ AL071906 35.2423 -30.1627 TS 60 0 15 42
1906265N30328 1906 39 NA NA NOT_NAMED 1906-09-30 00:00:00 TS 35.8000 -29.6000 60 hurdat_atl main 1464 1457 O_____________ hurdat_atl AL071906 35.8000 -29.6000 TS 60 0 13 39
1906265N30328 1906 39 NA NA NOT_NAMED 1906-09-30 03:00:00 TS 36.2570 -29.1335 main 1456 1453 P_____________ AL071906 36.2570 -29.1335 TS 57 0 12 39
1906265N30328 1906 39 NA NA NOT_NAMED 1906-09-30 06:00:00 TS 36.7000 -28.7000 55 hurdat_atl main 1453 1445 O_____________ hurdat_atl AL071906 36.7000 -28.7000 TS 55 0 12 39
1906265N30328 1906 39 NA NA NOT_NAMED 1906-09-30 09:00:00 TS 37.1545 -28.2355 main 1452 1446 P_____________ AL071906 37.1545 -28.2355 TS 52 0 13 39
1906265N30328 1906 39 NA NA NOT_NAMED 1906-09-30 12:00:00 TS 37.7000 -27.7000 50 hurdat_atl main 1456 1456 O_____________ hurdat_atl AL071906 37.7000 -27.7000 TS 50 0 16 37
1906265N30328 1906 39 NA NA NOT_NAMED 1906-09-30 15:00:00 TS 38.4044 -27.0662 main 1474 1446 P_____________ AL071906 38.4044 -27.0662 TS 47 0 19 36
1906265N30328 1906 39 NA NA NOT_NAMED 1906-09-30 18:00:00 TS 39.2000 -26.3000 45 hurdat_atl main 1446 1366 O_____________ hurdat_atl AL071906 39.2000 -26.3000 TS 45 0 21 39
1906265N30328 1906 39 NA NA NOT_NAMED 1906-09-30 21:00:00 TS 40.0151 -25.3878 main 1366 1274 P_____________ AL071906 40.0151 -25.3878 TS 42 0 22 42
1906265N30328 1906 39 NA NA NOT_NAMED 1906-10-01 00:00:00 TS 40.8000 -24.4000 40 hurdat_atl main 1266 1177 O_____________ hurdat_atl AL071906 40.8000 -24.4000 TS 40 0 21 45
1906265N30328 1906 39 NA NA NOT_NAMED 1906-10-01 03:00:00 TS 41.4790 -23.4548 main 1174 1089 P_____________ AL071906 41.4790 -23.4548 TS 37 0 19 48
1906265N30328 1906 39 NA NA NOT_NAMED 1906-10-01 06:00:00 ET 42.1000 -22.5000 35 hurdat_atl main 1080 998 O_____________ hurdat_atl AL071906 42.1000 -22.5000 EX 35 -4 19 50
1906265N30328 1906 39 NA NA NOT_NAMED 1906-10-01 09:00:00 ET 42.6833 -21.5405 main 990 913 P_____________ AL071906 42.6833 -21.5405 EX 35 -4 19 51
1906265N30328 1906 39 NA NA NOT_NAMED 1906-10-01 12:00:00 ET 43.3000 -20.5000 35 hurdat_atl main 905 818 O_____________ hurdat_atl AL071906 43.3000 -20.5000 EX 35 -4 21 51
1906265N30328 1906 39 NA NA NOT_NAMED 1906-10-01 15:00:00 ET 44.0111 -19.3217 main 810 729 P_____________ AL071906 44.0111 -19.3217 EX 35 -4 23 50
1906265N30328 1906 39 NA NA NOT_NAMED 1906-10-01 18:00:00 ET 44.8000 -18.0000 35 hurdat_atl main 722 653 O_____________ hurdat_atl AL071906 44.8000 -18.0000 EX 35 -4 25 50
1906265N30328 1906 39 NA NA NOT_NAMED 1906-10-01 21:00:00 ET 45.6096 -16.5903 main 646 591 P_____________ AL071906 45.6096 -16.5903 EX 32 -4 27 51
1906265N30328 1906 39 NA NA NOT_NAMED 1906-10-02 00:00:00 ET 46.5000 -15.0000 30 hurdat_atl main 591 497 O_____________ hurdat_atl AL071906 46.5000 -15.0000 EX 30 -4 30 51
1906265N30328 1906 39 NA NA NOT_NAMED 1906-10-02 03:00:00 ET 47.5168 -13.1195 main 493 339 P_____________ AL071906 47.5168 -13.1195 EX 30 -4 32 52
1906265N30328 1906 39 NA NA NOT_NAMED 1906-10-02 06:00:00 ET 48.5000 -11.2000 30 hurdat_atl main 336 244 O_____________ hurdat_atl AL071906 48.5000 -11.2000 EX 30 -4 29 53
1906265N30328 1906 39 NA NA NOT_NAMED 1906-10-02 09:00:00 ET 49.2828 -9.55155 main 233 170 P_____________ AL071906 49.2828 -9.55155 EX 30 -4 26 54
1906265N30328 1906 39 NA NA NOT_NAMED 1906-10-02 12:00:00 ET 50.0000 -8.00000 30 hurdat_atl main 163 87 O_____________ hurdat_atl AL071906 50.0000 -8.00000 EX 30 -4 25 54
1906265N30328 1906 39 NA NA NOT_NAMED 1906-10-02 15:00:00 ET 50.7436 -6.38922 main 82 13 P_____________ AL071906 50.7436 -6.38922 EX 30 -4 26 54
1906265N30328 1906 39 NA NA NOT_NAMED 1906-10-02 18:00:00 ET 51.5000 -4.70000 30 hurdat_atl main 17 O_____________ hurdat_atl AL071906 51.5000 -4.70000 EX 30 -4 26 54

About IBTrACS Database

This database is a web-friendly format of International Best Track Archive for Climate Stewardship (IBTrACS), a global best track data archive curated by NOAA dating back to 1842.

Updated: 2021-10-25